Time;durP1;ratioP1;P1;durP2;ratioP2;P2;SDS_P1;SDS_P2;PMS_P1;PMS_P2;Temp;Humidity;BMP_temperature;BMP_pressure;BME280_temperature;BME280_humidity;BME280_pressure;Samples;Min_cycle;Max_cycle;Signal;HPM_P1;HPM_P2
2023/07/14 00:00:39;;;;;;;12.57;10.88;;;;;;;;;;2543989;23;20058;-96
2023/07/14 00:01:40;;;;;;;14.23;11.73;;;;;;;;;;2107829;23;10493280;-95
2023/07/14 00:02:43;;;;;;;13.65;11.43;;;;;;;;;;2117692;23;10000243;-95
2023/07/14 00:03:43;;;;;;;15.82;11.02;;;;;;;;;;2547783;23;20092;-96
2023/07/14 00:04:44;;;;;;;13.77;10.75;;;;;;;;;;2545353;23;20001;-96
2023/07/14 00:05:46;;;;;;;13.25;11.15;;;;;;;;;;2521149;23;20480;-95
2023/07/14 00:06:47;;;;;;;13.27;11.43;;;;;;;;;;2533852;23;20040;-95
2023/07/14 00:07:49;;;;;;;14.48;11.63;;;;;;;;;;2536846;23;20006;-96
2023/07/14 00:08:50;;;;;;;14.82;11.13;;;;;;;;;;2540806;23;20043;-95
2023/07/14 00:09:55;;;;;;;15.80;11.50;;;;;;;;;;2539308;23;20004;-96
2023/07/14 00:10:56;;;;;;;14.60;11.98;;;;;;;;;;2549472;23;20022;-95
2023/07/14 00:11:57;;;;;;;13.48;11.23;;;;;;;;;;2556653;23;19993;-96
2023/07/14 00:13:07;;;;;;;12.85;11.43;;;;;;;;;;2556656;23;20013;-96
2023/07/14 00:14:09;;;;;;;15.00;12.27;;;;;;;;;;2525531;23;19994;-96
2023/07/14 00:15:11;;;;;;;13.18;11.70;;;;;;;;;;2533106;23;19996;-96
2023/07/14 00:16:16;;;;;;;18.00;12.90;;;;;;;;;;2534642;23;20017;-96
2023/07/14 00:17:18;;;;;;;14.68;11.88;;;;;;;;;;2533234;23;20005;-96
2023/07/14 00:18:26;;;;;;;15.05;11.93;;;;;;;;;;2533085;23;20093;-96
2023/07/14 00:19:26;;;;;;;15.95;10.88;;;;;;;;;;2534945;23;20064;-96
2023/07/14 00:20:33;;;;;;;15.55;11.48;;;;;;;;;;2545624;23;20009;-96
2023/07/14 00:21:34;;;;;;;12.98;11.10;;;;;;;;;;2545163;23;20005;-96
2023/07/14 00:22:34;;;;;;;15.00;12.20;;;;;;;;;;2549426;23;20395;-96
2023/07/14 00:23:35;;;;;;;15.15;11.93;;;;;;;;;;2533096;23;20083;-95
2023/07/14 00:24:38;;;;;;;14.13;11.82;;;;;;;;;;2532908;23;20080;-95
2023/07/14 00:25:42;;;;;;;15.00;11.85;;;;;;;;;;2533280;23;20026;-96
2023/07/14 00:26:49;;;;;;;13.68;11.75;;;;;;;;;;2534756;23;20048;-96
2023/07/14 00:27:51;;;;;;;13.02;11.10;;;;;;;;;;2533860;23;20318;-96
2023/07/14 00:28:52;;;;;;;14.68;11.25;;;;;;;;;;2533808;23;19998;-96
2023/07/14 00:29:52;;;;;;;13.18;10.90;;;;;;;;;;2545442;23;19997;-96
2023/07/14 00:30:57;;;;;;;13.50;11.65;;;;;;;;;;2545732;23;20008;-96
2023/07/14 00:31:58;;;;;;;14.20;11.45;;;;;;;;;;2525958;23;20005;-95
2023/07/14 00:32:58;;;;;;;15.02;11.25;;;;;;;;;;2533160;23;20506;-96
2023/07/14 00:34:04;;;;;;;15.18;10.65;;;;;;;;;;2544818;23;20007;-96
2023/07/14 00:35:27;;;;;;;12.85;10.95;;;;;;;;;;2544221;23;19993;-95
2023/07/14 00:36:27;;;;;;;13.10;10.77;;;;;;;;;;2545310;23;20121;-95
2023/07/14 00:37:28;;;;;;;13.15;11.25;;;;;;;;;;2532972;23;20009;-95
2023/07/14 00:38:29;;;;;;;13.25;11.00;;;;;;;;;;2532704;23;20013;-96
2023/07/14 00:39:29;;;;;;;13.88;11.05;;;;;;;;;;2533393;23;20348;-96
2023/07/14 00:40:37;;;;;;;14.00;11.57;;;;;;;;;;2532819;23;20413;-95
2023/07/14 00:41:40;;;;;;;15.55;11.27;;;;;;;;;;2534580;23;19998;-95
2023/07/14 00:42:46;;;;;;;13.73;10.80;;;;;;;;;;2545316;23;20013;-96
2023/07/14 00:43:52;;;;;;;12.60;10.88;;;;;;;;;;2534537;23;20009;-96
2023/07/14 00:44:54;;;;;;;13.38;11.05;;;;;;;;;;2533388;23;20243;-96
2023/07/14 00:45:59;;;;;;;14.95;11.00;;;;;;;;;;2533955;23;20060;-96
2023/07/14 00:47:00;;;;;;;14.27;11.15;;;;;;;;;;2543973;23;20406;-96
2023/07/14 00:48:04;;;;;;;13.38;10.98;;;;;;;;;;2534187;23;20013;-96
2023/07/14 00:49:11;;;;;;;13.40;11.23;;;;;;;;;;2550170;23;19997;-96
2023/07/14 00:50:42;;;;;;;14.75;11.45;;;;;;;;;;2544396;23;19986;-96
2023/07/14 00:51:43;;;;;;;14.48;11.45;;;;;;;;;;2538810;23;20463;-96
2023/07/14 00:52:54;;;;;;;12.88;10.98;;;;;;;;;;2551094;23;20020;-96
2023/07/14 00:53:56;;;;;;;14.13;10.93;;;;;;;;;;2550803;23;19997;-95
2023/07/14 00:54:57;;;;;;;13.32;10.50;;;;;;;;;;2534025;23;20006;-96
2023/07/14 00:56:01;;;;;;;17.92;11.23;;;;;;;;;;2534242;23;19994;-95
2023/07/14 00:57:01;;;;;;;13.05;10.48;;;;;;;;;;2534107;23;20337;-95
2023/07/14 00:58:11;;;;;;;13.80;11.18;;;;;;;;;;2534252;23;20014;-95
2023/07/14 00:59:14;;;;;;;12.18;10.77;;;;;;;;;;2538307;23;19994;-95
2023/07/14 01:00:24;;;;;;;12.23;10.57;;;;;;;;;;2539281;23;20002;-95
2023/07/14 01:01:25;;;;;;;13.48;11.98;;;;;;;;;;2538403;23;20097;-96
2023/07/14 01:02:26;;;;;;;14.00;10.73;;;;;;;;;;2538387;23;20392;-95
2023/07/14 01:03:26;;;;;;;13.70;11.10;;;;;;;;;;2537269;23;19994;-95
2023/07/14 01:04:27;;;;;;;13.32;11.13;;;;;;;;;;2521336;23;19998;-96
2023/07/14 01:05:28;;;;;;;17.00;10.80;;;;;;;;;;2521486;23;20002;-96
2023/07/14 01:06:34;;;;;;;13.15;11.00;;;;;;;;;;2533042;23;20017;-96
2023/07/14 01:07:39;;;;;;;15.45;11.65;;;;;;;;;;2532915;23;20066;-96
2023/07/14 01:08:59;;;;;;;13.88;11.05;;;;;;;;;;2533725;23;20354;-96
2023/07/14 01:10:06;;;;;;;16.70;11.48;;;;;;;;;;2532906;23;20026;-95
2023/07/14 01:11:06;;;;;;;13.60;10.40;;;;;;;;;;2534099;23;20005;-96
2023/07/14 01:12:10;;;;;;;16.30;11.48;;;;;;;;;;2545025;23;20053;-96
2023/07/14 01:13:11;;;;;;;13.50;11.00;;;;;;;;;;2544404;23;20392;-96
2023/07/14 01:14:24;;;;;;;12.85;11.48;;;;;;;;;;2532732;23;20137;-96
2023/07/14 01:15:27;;;;;;;13.95;11.82;;;;;;;;;;2539140;23;20002;-96
2023/07/14 01:16:32;;;;;;;14.73;11.70;;;;;;;;;;2545271;23;20430;-95
2023/07/14 01:17:37;;;;;;;12.95;11.48;;;;;;;;;;2549218;23;19997;-96
2023/07/14 01:18:39;;;;;;;14.52;12.00;;;;;;;;;;2545040;23;20005;-95
2023/07/14 01:19:50;;;;;;;13.70;10.68;;;;;;;;;;2532755;23;20001;-96
2023/07/14 01:20:50;;;;;;;14.48;10.43;;;;;;;;;;2534791;23;20382;-96
2023/07/14 01:22:00;;;;;;;12.48;10.48;;;;;;;;;;2536761;23;20013;-95
2023/07/14 01:23:34;;;;;;;15.25;11.35;;;;;;;;;;2555608;23;20053;-96
2023/07/14 01:24:43;;;;;;;17.55;10.57;;;;;;;;;;2563590;23;20057;-95
2023/07/14 01:26:23;;;;;;;14.80;11.27;;;;;;;;;;2546487;23;20451;-95
2023/07/14 01:27:26;;;;;;;11.97;10.43;;;;;;;;;;2078532;23;10263244;-96
2023/07/14 01:28:44;;;;;;;14.52;11.15;;;;;;;;;;2557979;23;20063;-94
2023/07/14 01:29:46;;;;;;;14.15;11.02;;;;;;;;;;2570580;23;20366;-95
2023/07/14 01:30:46;;;;;;;12.40;9.80;;;;;;;;;;2567535;23;20012;-96
2023/07/14 01:31:47;;;;;;;12.52;10.75;;;;;;;;;;2558139;23;19997;-95
2023/07/14 01:32:49;;;;;;;11.63;10.43;;;;;;;;;;2558164;23;20004;-95
2023/07/14 01:33:56;;;;;;;13.90;11.35;;;;;;;;;;2558443;23;20008;-96
2023/07/14 01:34:57;;;;;;;13.70;10.50;;;;;;;;;;2558264;23;20080;-96
2023/07/14 01:36:00;;;;;;;13.05;11.57;;;;;;;;;;2557862;23;20019;-96
2023/07/14 01:37:01;;;;;;;14.35;10.48;;;;;;;;;;2570437;23;20553;-96
2023/07/14 01:38:02;;;;;;;17.70;11.50;;;;;;;;;;2572101;23;19992;-96
2023/07/14 01:39:03;;;;;;;13.25;11.18;;;;;;;;;;2580270;22;20035;-95
2023/07/14 01:40:14;;;;;;;14.65;11.00;;;;;;;;;;2567896;23;20004;-95
2023/07/14 01:41:15;;;;;;;;;;;;;;;;;;2559153;23;19997;-96
2023/07/14 01:42:16;;;;;;;15.07;10.68;;;;;;;;;;2559255;23;19904;-96
2023/07/14 01:43:17;;;;;;;20.27;10.40;;;;;;;;;;2558926;23;20066;-95
2023/07/14 01:44:19;;;;;;;14.15;11.02;;;;;;;;;;2559589;23;19989;-95
2023/07/14 01:45:22;;;;;;;14.18;10.90;;;;;;;;;;2549824;23;20004;-96
2023/07/14 01:46:23;;;;;;;14.45;10.82;;;;;;;;;;2564454;23;19996;-94
2023/07/14 01:47:24;;;;;;;13.63;10.05;;;;;;;;;;2576544;23;20030;-94
2023/07/14 01:48:30;;;;;;;10.85;9.73;;;;;;;;;;2562171;23;20008;-95
2023/07/14 01:49:41;;;;;;;13.25;9.68;;;;;;;;;;2573328;23;20031;-96
2023/07/14 01:50:47;;;;;;;13.07;9.93;;;;;;;;;;2570855;23;20028;-95
2023/07/14 01:51:50;;;;;;;13.98;10.40;;;;;;;;;;2561505;23;20000;-96
2023/07/14 01:52:57;;;;;;;13.43;10.55;;;;;;;;;;2562314;23;20004;-95
2023/07/14 01:54:20;;;;;;;13.10;10.52;;;;;;;;;;2117498;23;10539191;-96
2023/07/14 01:55:23;;;;;;;14.68;11.05;;;;;;;;;;2569517;23;20070;-96
2023/07/14 01:56:29;;;;;;;14.82;10.60;;;;;;;;;;2569917;23;20000;-96
2023/07/14 01:57:32;;;;;;;13.80;11.55;;;;;;;;;;2569569;23;20012;-96
2023/07/14 01:59:12;;;;;;;13.68;10.35;;;;;;;;;;2269314;23;10236004;-96
2023/07/14 02:00:14;;;;;;;13.37;10.37;;;;;;;;;;2125912;23;10065362;-94
2023/07/14 02:01:15;;;;;;;12.30;10.30;;;;;;;;;;2569061;23;20017;-94
2023/07/14 02:02:25;;;;;;;18.27;11.05;;;;;;;;;;2566109;23;20009;-95
2023/07/14 02:03:33;;;;;;;14.67;10.53;;;;;;;;;;2551585;23;20428;-96
2023/07/14 02:04:37;;;;;;;13.57;10.45;;;;;;;;;;2563700;23;20236;-96
2023/07/14 02:05:38;;;;;;;15.45;11.40;;;;;;;;;;2560417;23;20144;-96
2023/07/14 02:06:39;;;;;;;12.38;10.20;;;;;;;;;;2559135;23;20354;-95
2023/07/14 02:07:40;;;;;;;15.13;11.23;;;;;;;;;;2557627;23;20423;-96
2023/07/14 02:08:44;;;;;;;13.00;10.25;;;;;;;;;;2557943;23;19993;-95
2023/07/14 02:09:46;;;;;;;12.88;10.90;;;;;;;;;;2570056;23;20014;-95
2023/07/14 02:10:46;;;;;;;13.02;10.43;;;;;;;;;;2545969;23;19994;-94
2023/07/14 02:11:53;;;;;;;16.75;10.77;;;;;;;;;;2545660;23;20071;-96
2023/07/14 02:12:55;;;;;;;15.02;10.77;;;;;;;;;;2547125;23;20069;-96
2023/07/14 02:13:57;;;;;;;12.70;10.15;;;;;;;;;;2558132;23;19997;-95
2023/07/14 02:15:06;;;;;;;11.88;10.45;;;;;;;;;;2570377;23;20024;-94
2023/07/14 02:16:12;;;;;;;14.52;10.57;;;;;;;;;;2556111;23;19997;-95
2023/07/14 02:17:22;;;;;;;14.50;10.82;;;;;;;;;;2558015;23;19996;-95
2023/07/14 02:18:27;;;;;;;13.07;10.40;;;;;;;;;;2559794;23;20044;-95
2023/07/14 02:19:28;;;;;;;15.25;10.38;;;;;;;;;;2558098;23;20032;-96
2023/07/14 02:20:34;;;;;;;13.57;10.48;;;;;;;;;;2557957;23;20023;-96
2023/07/14 02:21:37;;;;;;;13.70;9.88;;;;;;;;;;2558014;23;20466;-95
2023/07/14 02:22:38;;;;;;;12.02;10.40;;;;;;;;;;2557671;23;20079;-95
2023/07/14 02:23:40;;;;;;;14.88;11.35;;;;;;;;;;2558317;23;20001;-96
2023/07/14 02:24:41;;;;;;;14.07;10.93;;;;;;;;;;2575237;23;19993;-95
2023/07/14 02:25:44;;;;;;;14.60;10.15;;;;;;;;;;2570630;23;20039;-95
2023/07/14 02:26:49;;;;;;;13.10;10.98;;;;;;;;;;2569756;23;19993;-96
2023/07/14 02:27:49;;;;;;;13.07;10.45;;;;;;;;;;2564091;23;20075;-96
2023/07/14 02:28:49;;;;;;;12.60;10.35;;;;;;;;;;2580397;22;20016;-93
2023/07/14 02:29:50;;;;;;;13.45;10.80;;;;;;;;;;2573741;22;20159;-95
2023/07/14 02:30:58;;;;;;;12.57;10.93;;;;;;;;;;2558118;23;20000;-96
2023/07/14 02:32:14;;;;;;;11.82;9.93;;;;;;;;;;2546951;23;20005;-96
2023/07/14 02:33:24;;;;;;;13.02;10.27;;;;;;;;;;2560757;23;20052;-95
2023/07/14 02:34:33;;;;;;;13.63;10.43;;;;;;;;;;2562044;23;20012;-95
2023/07/14 02:36:13;;;;;;;12.88;10.20;;;;;;;;;;2560002;23;20009;-96
2023/07/14 02:38:04;;;;;;;12.40;10.52;;;;;;;;;;2525580;23;20001;-95
2023/07/14 02:39:06;;;;;;;12.60;9.82;;;;;;;;;;2521395;23;20337;-96
2023/07/14 02:40:09;;;;;;;12.32;9.88;;;;;;;;;;2521352;23;20001;-96
2023/07/14 02:41:19;;;;;;;13.93;10.57;;;;;;;;;;2531208;23;20080;-96
2023/07/14 02:42:20;;;;;;;12.90;9.90;;;;;;;;;;2560142;23;19997;-96
2023/07/14 02:43:22;;;;;;;13.95;9.77;;;;;;;;;;2571520;23;20023;-96
2023/07/14 02:44:46;;;;;;;13.05;10.77;;;;;;;;;;2558383;23;20418;-96
2023/07/14 02:46:20;;;;;;;12.68;9.90;;;;;;;;;;2550943;23;20439;-96
2023/07/14 02:47:22;;;;;;;12.68;9.60;;;;;;;;;;2565413;23;20012;-95
2023/07/14 02:48:53;;;;;;;12.77;9.73;;;;;;;;;;2557851;23;20089;-96
2023/07/14 02:49:53;;;;;;;12.75;9.57;;;;;;;;;;2558148;23;20020;-96
2023/07/14 02:50:57;;;;;;;15.23;9.05;;;;;;;;;;2546246;23;20459;-96
2023/07/14 02:51:57;;;;;;;10.68;9.10;;;;;;;;;;2546281;23;20351;-96
2023/07/14 02:52:58;;;;;;;12.43;8.63;;;;;;;;;;2557697;23;20004;-96
2023/07/14 02:53:58;;;;;;;14.60;9.30;;;;;;;;;;2558379;23;20005;-96
2023/07/14 02:54:59;;;;;;;12.30;8.93;;;;;;;;;;2571044;23;20005;-96
2023/07/14 02:56:00;;;;;;;11.85;8.73;;;;;;;;;;2558682;23;20008;-96
2023/07/14 02:57:00;;;;;;;12.10;9.18;;;;;;;;;;2545449;23;20021;-96
2023/07/14 02:58:01;;;;;;;13.07;8.48;;;;;;;;;;2557471;23;20370;-96
2023/07/14 02:59:03;;;;;;;12.75;8.75;;;;;;;;;;2560230;23;19997;-96
2023/07/14 03:00:10;;;;;;;12.57;8.63;;;;;;;;;;2560640;23;20060;-96
2023/07/14 03:01:11;;;;;;;12.38;9.00;;;;;;;;;;2573117;23;20048;-96
2023/07/14 03:02:14;;;;;;;11.73;9.57;;;;;;;;;;2571668;23;20012;-96
2023/07/14 03:03:15;;;;;;;12.00;8.75;;;;;;;;;;2558470;23;20001;-96
2023/07/14 03:04:16;;;;;;;11.75;9.40;;;;;;;;;;2559269;23;20012;-96
2023/07/14 03:05:20;;;;;;;10.32;8.93;;;;;;;;;;2557923;23;20016;-96
2023/07/14 03:06:21;;;;;;;14.68;9.13;;;;;;;;;;2571184;23;20012;-96
2023/07/14 03:07:22;;;;;;;11.15;8.85;;;;;;;;;;2559086;23;20007;-96
2023/07/14 03:08:23;;;;;;;10.82;8.88;;;;;;;;;;2559268;23;20001;-96
2023/07/14 03:09:23;;;;;;;14.82;9.25;;;;;;;;;;2559170;23;20017;-96
2023/07/14 03:10:24;;;;;;;13.07;9.05;;;;;;;;;;2546188;23;19993;-96
2023/07/14 03:11:24;;;;;;;12.98;9.38;;;;;;;;;;2559014;23;20084;-96
2023/07/14 03:12:26;;;;;;;10.60;9.35;;;;;;;;;;2557957;23;20001;-95
2023/07/14 03:13:27;;;;;;;11.45;8.73;;;;;;;;;;2547084;23;20072;-96
2023/07/14 03:14:30;;;;;;;15.98;9.65;;;;;;;;;;2547486;23;20069;-96
2023/07/14 03:15:35;;;;;;;12.32;9.10;;;;;;;;;;2569935;23;19997;-96
2023/07/14 03:16:36;;;;;;;12.88;9.05;;;;;;;;;;2581517;22;20000;-96
2023/07/14 03:17:38;;;;;;;11.13;9.13;;;;;;;;;;2581500;22;19992;-96
2023/07/14 03:18:39;;;;;;;9.68;8.55;;;;;;;;;;2569383;23;20001;-95
2023/07/14 03:19:40;;;;;;;10.57;8.65;;;;;;;;;;2568745;23;20001;-96
2023/07/14 03:20:43;;;;;;;12.65;9.10;;;;;;;;;;2559595;23;20362;-96
2023/07/14 03:21:43;;;;;;;13.93;9.15;;;;;;;;;;2559261;23;19996;-96
2023/07/14 03:22:44;;;;;;;15.70;9.40;;;;;;;;;;2547624;23;20175;-94
2023/07/14 03:23:44;;;;;;;10.48;8.70;;;;;;;;;;2560003;23;19998;-94
2023/07/14 03:24:45;;;;;;;11.73;9.63;;;;;;;;;;2560158;23;20001;-94
2023/07/14 03:25:51;;;;;;;12.73;8.80;;;;;;;;;;2560486;23;19997;-94
2023/07/14 03:26:52;;;;;;;12.07;8.60;;;;;;;;;;2571970;23;19996;-95
2023/07/14 03:27:53;;;;;;;12.77;9.23;;;;;;;;;;2547033;23;20001;-96
2023/07/14 03:28:53;;;;;;;9.88;8.68;;;;;;;;;;2547184;23;20084;-95
2023/07/14 03:29:55;;;;;;;14.13;8.35;;;;;;;;;;2559492;23;19997;-95
2023/07/14 03:30:57;;;;;;;16.08;9.60;;;;;;;;;;2558978;23;20079;-96
2023/07/14 03:31:58;;;;;;;12.73;9.23;;;;;;;;;;2547393;23;20006;-95
2023/07/14 03:32:58;;;;;;;10.57;9.50;;;;;;;;;;2559383;23;20087;-95
2023/07/14 03:33:59;;;;;;;14.43;8.90;;;;;;;;;;2581112;23;20001;-96
2023/07/14 03:34:59;;;;;;;10.88;9.05;;;;;;;;;;2568467;23;20073;-96
2023/07/14 03:36:04;;;;;;;14.25;9.80;;;;;;;;;;2569043;23;20004;-96
2023/07/14 03:37:05;;;;;;;13.40;9.25;;;;;;;;;;2569592;23;20371;-95
2023/07/14 03:38:06;;;;;;;14.75;8.93;;;;;;;;;;2567291;23;19983;-96
2023/07/14 03:43:26;;;;;;;10.50;8.45;;;;;;;;;;2545353;23;20021;-95
2023/07/14 03:44:32;;;;;;;9.07;8.13;;;;;;;;;;2542064;23;19997;-95
2023/07/14 03:45:33;;;;;;;15.05;8.55;;;;;;;;;;2533814;23;20060;-94
2023/07/14 03:46:36;;;;;;;12.32;8.95;;;;;;;;;;2547634;23;20008;-95
2023/07/14 03:47:40;;;;;;;18.15;9.77;;;;;;;;;;2546524;23;20004;-95
2023/07/14 03:48:41;;;;;;;11.82;8.45;;;;;;;;;;2547213;23;20001;-95
2023/07/14 03:49:41;;;;;;;13.43;8.25;;;;;;;;;;2558141;23;20403;-95
2023/07/14 03:50:42;;;;;;;11.70;8.15;;;;;;;;;;2558236;23;20004;-96
2023/07/14 03:51:43;;;;;;;13.95;8.88;;;;;;;;;;2559286;23;20076;-95
2023/07/14 03:52:46;;;;;;;12.88;8.68;;;;;;;;;;2564029;23;20420;-95
2023/07/14 03:53:46;;;;;;;11.90;8.43;;;;;;;;;;2553004;23;20001;-95
2023/07/14 03:54:47;;;;;;;13.10;9.00;;;;;;;;;;2565263;23;20092;-95
2023/07/14 03:55:48;;;;;;;10.65;8.05;;;;;;;;;;2580305;22;20003;-95
2023/07/14 03:56:49;;;;;;;12.98;8.63;;;;;;;;;;2570159;23;20020;-95
2023/07/14 03:57:49;;;;;;;13.10;8.65;;;;;;;;;;2568972;23;20005;-94
2023/07/14 03:58:50;;;;;;;15.40;8.48;;;;;;;;;;2568839;23;19993;-95
2023/07/14 03:59:50;;;;;;;16.00;8.93;;;;;;;;;;2575897;23;20044;-95
2023/07/14 04:00:50;;;;;;;13.20;8.57;;;;;;;;;;2558014;23;20064;-95
2023/07/14 04:01:51;;;;;;;12.40;8.68;;;;;;;;;;2559395;23;20053;-95
2023/07/14 04:02:52;;;;;;;14.48;8.82;;;;;;;;;;2578292;23;20426;-95
2023/07/14 04:03:52;;;;;;;22.17;14.48;;;;;;;;;;2558320;23;20001;-93
2023/07/14 04:04:52;;;;;;;10.85;9.35;;;;;;;;;;2548984;23;20001;-96
2023/07/14 04:05:53;;;;;;;14.43;9.30;;;;;;;;;;2554144;23;19985;-94
2023/07/14 04:06:57;;;;;;;13.45;9.63;;;;;;;;;;2563893;23;20009;-96
2023/07/14 04:07:57;;;;;;;11.93;8.60;;;;;;;;;;2557753;23;20051;-94
2023/07/14 04:08:59;;;;;;;12.25;8.52;;;;;;;;;;2112100;23;10210897;-96
2023/07/14 04:10:05;;;;;;;12.95;8.50;;;;;;;;;;2557995;23;19997;-97
2023/07/14 04:11:06;;;;;;;10.80;8.70;;;;;;;;;;2559380;23;20001;-95
2023/07/14 04:12:09;;;;;;;10.93;8.30;;;;;;;;;;2558165;23;19997;-95
2023/07/14 04:13:10;;;;;;;14.48;8.73;;;;;;;;;;2558460;23;20056;-95
2023/07/14 04:14:11;;;;;;;12.10;8.43;;;;;;;;;;2570720;23;20000;-96
2023/07/14 04:15:11;;;;;;;13.38;8.77;;;;;;;;;;2580043;23;20014;-96
2023/07/14 04:16:12;;;;;;;17.17;8.87;;;;;;;;;;1273738;23;10001003;-96
2023/07/14 04:17:12;;;;;;;11.88;9.15;;;;;;;;;;2581432;22;20231;-96
2023/07/14 04:18:13;;;;;;;16.73;8.18;;;;;;;;;;2550283;23;20159;-96
2023/07/14 04:19:14;;;;;;;14.32;8.50;;;;;;;;;;2546987;23;20069;-96
2023/07/14 04:20:14;;;;;;;14.77;8.48;;;;;;;;;;2559239;23;19992;-96
2023/07/14 04:21:16;;;;;;;12.57;8.10;;;;;;;;;;2560029;23;20119;-95
2023/07/14 04:22:18;;;;;;;16.55;8.07;;;;;;;;;;2558624;23;20067;-95
2023/07/14 04:23:20;;;;;;;11.60;8.68;;;;;;;;;;2557964;23;20017;-95
2023/07/14 04:24:22;;;;;;;15.30;9.60;;;;;;;;;;2180227;23;10248964;-94
2023/07/14 04:25:23;;;;;;;15.73;8.65;;;;;;;;;;2557472;23;20213;-96
2023/07/14 04:26:25;;;;;;;14.20;9.15;;;;;;;;;;2544951;23;20132;-95
2023/07/14 04:27:26;;;;;;;13.88;8.32;;;;;;;;;;2557721;23;20066;-95
2023/07/14 04:28:28;;;;;;;17.10;8.80;;;;;;;;;;2557522;23;20048;-96
2023/07/14 04:29:29;;;;;;;11.25;8.65;;;;;;;;;;2557528;23;20041;-95
2023/07/14 04:30:36;;;;;;;12.20;9.08;;;;;;;;;;2348030;23;10400021;-95
2023/07/14 04:31:45;;;;;;;14.25;8.70;;;;;;;;;;2557617;23;20271;-96
2023/07/14 04:32:50;;;;;;;15.27;10.07;;;;;;;;;;2557504;23;20001;-95
2023/07/14 04:33:51;;;;;;;11.43;8.20;;;;;;;;;;2546077;23;20005;-95
2023/07/14 04:34:53;;;;;;;13.02;8.82;;;;;;;;;;2546535;23;20129;-96
2023/07/14 04:35:55;;;;;;;13.52;8.32;;;;;;;;;;2558106;23;20008;-96
2023/07/14 04:36:56;;;;;;;15.57;8.95;;;;;;;;;;2545687;23;20002;-95
2023/07/14 04:37:58;;;;;;;15.15;9.00;;;;;;;;;;2557225;23;19993;-96
2023/07/14 04:39:03;;;;;;;14.90;8.52;;;;;;;;;;2570414;23;20453;-96
2023/07/14 04:40:07;;;;;;;11.43;8.20;;;;;;;;;;2558347;23;19997;-96
2023/07/14 04:41:12;;;;;;;12.43;8.90;;;;;;;;;;2574204;23;20110;-95
2023/07/14 04:42:20;;;;;;;16.50;8.00;;;;;;;;;;2557276;23;20304;-96
2023/07/14 04:43:21;;;;;;;10.27;8.02;;;;;;;;;;2561733;23;19997;-95
2023/07/14 04:44:23;;;;;;;11.38;8.15;;;;;;;;;;2557325;23;19989;-95
2023/07/14 04:45:24;;;;;;;10.57;7.82;;;;;;;;;;2557247;23;20005;-95
2023/07/14 04:46:24;;;;;;;12.05;8.05;;;;;;;;;;2557080;23;20012;-95
2023/07/14 04:47:25;;;;;;;10.98;7.32;;;;;;;;;;2557887;23;20008;-95
2023/07/14 04:48:25;;;;;;;11.30;7.88;;;;;;;;;;2575518;23;20071;-95
2023/07/14 04:50:20;;;;;;;15.57;9.38;;;;;;;;;;2557756;23;20025;-95
2023/07/14 04:51:20;;;;;;;13.40;7.88;;;;;;;;;;2532632;23;19993;-95
2023/07/14 04:52:23;;;;;;;11.80;8.02;;;;;;;;;;2532805;23;19997;-95
2023/07/14 04:53:23;;;;;;;10.70;7.65;;;;;;;;;;2529542;23;20065;-95
2023/07/14 04:54:26;;;;;;;14.23;7.35;;;;;;;;;;2518210;23;20013;-94
2023/07/14 04:55:27;;;;;;;10.90;6.97;;;;;;;;;;2509342;23;20009;-95
2023/07/14 04:56:28;;;;;;;13.20;7.35;;;;;;;;;;2508859;23;20007;-95
2023/07/14 04:57:29;;;;;;;12.88;8.10;;;;;;;;;;2511268;23;20003;-94
2023/07/14 04:58:50;;;;;;;10.32;7.68;;;;;;;;;;2522454;23;20000;-95
2023/07/14 05:12:30;;;;;;;13.70;7.60;;;;;;;;;;2492452;23;20078;-96
2023/07/14 05:13:31;;;;;;;10.48;7.63;;;;;;;;;;2474963;23;20012;-96
2023/07/14 05:14:31;;;;;;;14.25;8.00;;;;;;;;;;2525642;23;20148;-96
2023/07/14 05:15:32;;;;;;;11.95;7.57;;;;;;;;;;2524190;23;19998;-96
2023/07/14 05:16:33;;;;;;;10.27;7.60;;;;;;;;;;2526929;23;20003;-95
2023/07/14 05:17:34;;;;;;;10.13;7.50;;;;;;;;;;2528351;23;20365;-96
2023/07/14 05:18:34;;;;;;;14.25;8.40;;;;;;;;;;2529304;23;20010;-96
2023/07/14 05:19:35;;;;;;;9.93;7.10;;;;;;;;;;2585289;23;20085;-96
2023/07/14 05:20:36;;;;;;;10.15;7.00;;;;;;;;;;2590409;23;20390;-96
2023/07/14 05:21:37;;;;;;;13.93;8.30;;;;;;;;;;2575459;23;20450;-95
2023/07/14 05:22:44;;;;;;;11.88;7.90;;;;;;;;;;2587303;23;20081;-96
2023/07/14 05:23:44;;;;;;;10.55;8.38;;;;;;;;;;2574471;23;19999;-96
2023/07/14 05:24:45;;;;;;;12.95;7.82;;;;;;;;;;2572489;23;19992;-95
2023/07/14 05:25:46;;;;;;;11.90;8.10;;;;;;;;;;2583752;23;19996;-95
2023/07/14 05:26:46;;;;;;;13.55;8.20;;;;;;;;;;2558784;23;20525;-95
2023/07/14 05:27:49;;;;;;;8.15;7.00;;;;;;;;;;2575345;23;19992;-96
2023/07/14 05:28:49;;;;;;;16.88;7.80;;;;;;;;;;2571277;23;20001;-94
2023/07/14 05:29:53;;;;;;;10.85;7.53;;;;;;;;;;2122859;23;10476810;-96
2023/07/14 05:30:58;;;;;;;9.35;7.57;;;;;;;;;;2571248;23;20525;-96
2023/07/14 05:31:58;;;;;;;10.30;7.20;;;;;;;;;;2548712;23;20523;-95
2023/07/14 05:33:00;;;;;;;11.02;7.82;;;;;;;;;;2558814;23;20059;-95
2023/07/14 05:34:00;;;;;;;10.70;7.75;;;;;;;;;;2558393;23;20465;-95
2023/07/14 05:35:01;;;;;;;11.93;7.28;;;;;;;;;;2575302;23;20115;-95
2023/07/14 05:36:04;;;;;;;10.13;7.90;;;;;;;;;;2558677;23;20079;-96
2023/07/14 05:37:04;;;;;;;9.80;7.72;;;;;;;;;;2558694;23;19997;-95
2023/07/14 05:38:05;;;;;;;7.40;6.68;;;;;;;;;;2575123;23;19989;-96
2023/07/14 05:39:06;;;;;;;12.75;7.20;;;;;;;;;;2571040;23;20073;-95
2023/07/14 05:40:14;;;;;;;10.70;7.07;;;;;;;;;;2113121;23;10463992;-96
2023/07/14 05:41:17;;;;;;;13.63;6.53;;;;;;;;;;2567541;23;19977;-94
2023/07/14 05:42:17;;;;;;;10.70;6.80;;;;;;;;;;2547643;23;20028;-96
2023/07/14 05:43:18;;;;;;;13.43;6.38;;;;;;;;;;2550364;23;19993;-94
2023/07/14 05:44:19;;;;;;;13.93;7.00;;;;;;;;;;2546157;23;20005;-94
2023/07/14 05:45:19;;;;;;;11.13;7.05;;;;;;;;;;2550350;23;20096;-95
2023/07/14 05:46:23;;;;;;;9.13;6.57;;;;;;;;;;2558675;23;20432;-95
2023/07/14 05:47:26;;;;;;;10.15;7.05;;;;;;;;;;2571431;23;20082;-95
2023/07/14 05:48:26;;;;;;;9.35;6.80;;;;;;;;;;2571161;23;20086;-96
2023/07/14 05:49:27;;;;;;;9.48;6.10;;;;;;;;;;2558784;23;20423;-96
2023/07/14 05:50:27;;;;;;;11.88;6.63;;;;;;;;;;2562660;23;20525;-96
2023/07/14 05:51:28;;;;;;;10.15;7.07;;;;;;;;;;2558554;23;20005;-95
2023/07/14 05:52:28;;;;;;;10.23;6.03;;;;;;;;;;2563000;23;20017;-95
2023/07/14 05:53:47;;;;;;;10.57;6.43;;;;;;;;;;2564092;23;20045;-96
2023/07/14 05:54:50;;;;;;;11.20;6.30;;;;;;;;;;2225916;23;10296103;-96
2023/07/14 05:55:56;;;;;;;7.93;6.38;;;;;;;;;;2558971;23;20258;-96
2023/07/14 05:56:58;;;;;;;11.55;6.85;;;;;;;;;;2571451;23;20151;-95
2023/07/14 05:58:01;;;;;;;10.18;6.38;;;;;;;;;;2558467;23;20109;-95
2023/07/14 05:59:02;;;;;;;9.98;6.57;;;;;;;;;;2559113;23;20065;-96
2023/07/14 06:00:06;;;;;;;11.23;5.88;;;;;;;;;;2575490;23;19992;-95
2023/07/14 06:01:07;;;;;;;7.93;6.07;;;;;;;;;;2558630;23;20447;-96
2023/07/14 06:02:13;;;;;;;9.48;5.40;;;;;;;;;;2111378;23;10239167;-96
2023/07/14 06:03:24;;;;;;;7.95;6.43;;;;;;;;;;2558592;23;19996;-96
2023/07/14 06:04:25;;;;;;;9.75;6.53;;;;;;;;;;2560553;23;20112;-96
2023/07/14 06:05:25;;;;;;;8.50;6.28;;;;;;;;;;2557940;23;20008;-95
2023/07/14 06:06:26;;;;;;;8.40;5.70;;;;;;;;;;2558122;23;20005;-96
2023/07/14 06:07:32;;;;;;;10.35;6.30;;;;;;;;;;2574666;23;20012;-96
2023/07/14 06:08:35;;;;;;;9.70;6.80;;;;;;;;;;2571094;23;20015;-96
2023/07/14 06:09:37;;;;;;;10.15;6.00;;;;;;;;;;2574934;23;20311;-96
2023/07/14 06:15:28;;;;;;;8.48;6.32;;;;;;;;;;2545444;23;20017;-96
2023/07/14 06:20:42;;;;;;;10.25;6.32;;;;;;;;;;2513135;23;19999;-96
2023/07/14 06:21:43;;;;;;;13.43;6.88;;;;;;;;;;2520075;23;20002;-96
2023/07/14 06:22:44;;;;;;;9.13;6.28;;;;;;;;;;2545435;23;20065;-96
2023/07/14 06:23:45;;;;;;;12.52;6.88;;;;;;;;;;2570119;23;20020;-95
2023/07/14 06:24:48;;;;;;;10.93;6.32;;;;;;;;;;2570395;23;20024;-96
2023/07/14 06:25:48;;;;;;;12.27;6.78;;;;;;;;;;2557883;23;19993;-96
2023/07/14 06:26:53;;;;;;;11.77;6.72;;;;;;;;;;2558690;23;20082;-95
2023/07/14 06:27:53;;;;;;;12.77;6.47;;;;;;;;;;2133854;23;10263049;-96
2023/07/14 06:28:54;;;;;;;8.95;6.43;;;;;;;;;;2583329;23;19985;-95
2023/07/14 06:29:57;;;;;;;14.18;6.68;;;;;;;;;;2574866;23;20066;-95
2023/07/14 06:31:00;;;;;;;10.50;6.93;;;;;;;;;;2558718;23;20004;-96
2023/07/14 06:32:02;;;;;;;10.85;7.03;;;;;;;;;;2547717;23;19998;-95
2023/07/14 06:33:05;;;;;;;9.38;6.40;;;;;;;;;;2569169;23;20052;-96
2023/07/14 06:34:06;;;;;;;9.70;6.68;;;;;;;;;;2568865;23;19985;-96
2023/07/14 06:35:09;;;;;;;11.68;6.88;;;;;;;;;;2557059;23;19982;-96
2023/07/14 06:36:10;;;;;;;7.95;6.03;;;;;;;;;;2560819;23;20069;-96
2023/07/14 06:37:10;;;;;;;11.68;6.95;;;;;;;;;;2575170;23;19989;-95
2023/07/14 06:38:11;;;;;;;9.40;6.63;;;;;;;;;;2558042;23;19985;-95
2023/07/14 06:39:13;;;;;;;15.00;6.82;;;;;;;;;;2546214;23;20433;-95
2023/07/14 06:40:20;;;;;;;10.55;6.35;;;;;;;;;;2560330;23;20076;-96